BEL1MG EBBR-LPPR
Flight info
| Callsign | BEL1MG |
|---|---|
| Flight time | N/A |
| Altitude | 33000 |
| Route | CIV N872 LESDO DCT KOVIN DCT NIDUV DCT KIHVI UN872 DITAL/N0439F350 UN872 GODIX/N0441F370 UN872 ERIGA UZ218 FUJTI DCT ATLEN DCT INSID T326 ASPOR |
| Aircraft | A320/M-SDE3FGHIRWY/LB1 |
Departure
| Time | N/A |
|---|---|
| Airport | Brussels Airport (EBBR) |
Arrival
| Time | 2026-05-01 12:22 |
|---|---|
| Airport | Francisco de Sá Carneiro Airport (LPPR) |
| Time | Latitude | Longitude | Altitude | Speed | Heading |
|---|---|---|---|---|---|
| 2026-05-01 10:21 | 50.65658 | 3.95441 | 17329 ft | 360 kts | 220° |
| 2026-05-01 10:21 | 50.61966 | 3.90013 | 18514 ft | 366 kts | 220° |
| 2026-05-01 10:21 | 50.60096 | 3.87267 | 19024 ft | 369 kts | 220° |
| 2026-05-01 10:22 | 50.56006 | 3.82368 | 20008 ft | 371 kts | 204° |
| 2026-05-01 10:22 | 50.51243 | 3.79096 | 20987 ft | 377 kts | 201° |
| 2026-05-01 10:23 | 50.48826 | 3.77451 | 21492 ft | 380 kts | 201° |
| 2026-05-01 10:23 | 50.43939 | 3.74117 | 22482 ft | 386 kts | 201° |
| 2026-05-01 10:23 | 50.41466 | 3.72432 | 22965 ft | 389 kts | 201° |
| 2026-05-01 10:24 | 50.36454 | 3.69021 | 23898 ft | 395 kts | 201° |
| 2026-05-01 10:24 | 50.31402 | 3.65594 | 24769 ft | 397 kts | 201° |
| 2026-05-01 10:25 | 50.26310 | 3.62160 | 25527 ft | 401 kts | 201° |
| 2026-05-01 10:25 | 50.21153 | 3.58692 | 26248 ft | 405 kts | 201° |
| 2026-05-01 10:26 | 50.18552 | 3.56946 | 26598 ft | 407 kts | 201° |
| 2026-05-01 10:26 | 50.15948 | 3.55195 | 26939 ft | 409 kts | 201° |
| 2026-05-01 10:26 | 50.10687 | 3.51668 | 27593 ft | 414 kts | 201° |
| 2026-05-01 10:27 | 50.05375 | 3.48113 | 28246 ft | 418 kts | 200° |
| 2026-05-01 10:27 | 49.99991 | 3.44531 | 28864 ft | 422 kts | 200° |
| 2026-05-01 10:28 | 49.97286 | 3.42728 | 29169 ft | 424 kts | 201° |
| 2026-05-01 10:28 | 49.91834 | 3.39098 | 29758 ft | 428 kts | 200° |
| 2026-05-01 10:28 | 49.89127 | 3.37301 | 30050 ft | 430 kts | 200° |
| 2026-05-01 10:29 | 49.83602 | 3.33644 | 30558 ft | 433 kts | 200° |
| 2026-05-01 10:29 | 49.80825 | 3.31805 | 30785 ft | 435 kts | 200° |
| 2026-05-01 10:30 | 49.75246 | 3.28122 | 31257 ft | 437 kts | 200° |
| 2026-05-01 10:30 | 49.69665 | 3.24441 | 31873 ft | 434 kts | 200° |
| 2026-05-01 10:31 | 49.64118 | 3.20796 | 32495 ft | 432 kts | 200° |
| 2026-05-01 10:31 | 49.59149 | 3.17539 | 33051 ft | 431 kts | 200° |
| 2026-05-01 10:32 | 49.53647 | 3.13931 | 33654 ft | 429 kts | 202° |
| 2026-05-01 10:32 | 49.51040 | 3.11691 | 33987 ft | 430 kts | 212° |
| 2026-05-01 10:32 | 49.46732 | 3.05296 | 34594 ft | 435 kts | 231° |
| 2026-05-01 10:33 | 49.43631 | 2.97264 | 35012 ft | 438 kts | 237° |
| 2026-05-01 10:33 | 49.40612 | 2.89113 | 35244 ft | 441 kts | 237° |
| 2026-05-01 10:34 | 49.39086 | 2.85020 | 35238 ft | 442 kts | 237° |
| 2026-05-01 10:34 | 49.36025 | 2.76838 | 35238 ft | 443 kts | 237° |
| 2026-05-01 10:35 | 49.31524 | 2.64519 | 35242 ft | 443 kts | 238° |
| 2026-05-01 10:35 | 49.28612 | 2.56125 | 35239 ft | 443 kts | 238° |
| 2026-05-01 10:36 | 49.24266 | 2.43692 | 35241 ft | 443 kts | 238° |
| 2026-05-01 10:37 | 49.21321 | 2.35403 | 35243 ft | 444 kts | 238° |
| 2026-05-01 10:37 | 49.16836 | 2.23010 | 35249 ft | 443 kts | 237° |
| 2026-05-01 10:38 | 49.13800 | 2.14869 | 35258 ft | 443 kts | 236° |
| 2026-05-01 10:38 | 49.10748 | 2.06684 | 35255 ft | 443 kts | 236° |
| 2026-05-01 10:39 | 49.07990 | 1.98231 | 35253 ft | 446 kts | 242° |
| 2026-05-01 10:39 | 49.05421 | 1.89632 | 35254 ft | 446 kts | 241° |
| 2026-05-01 10:40 | 49.02825 | 1.81021 | 35233 ft | 447 kts | 241° |
| 2026-05-01 10:40 | 49.00222 | 1.72417 | 35236 ft | 447 kts | 241° |
| 2026-05-01 10:41 | 48.97624 | 1.63848 | 35209 ft | 448 kts | 241° |
| 2026-05-01 10:42 | 48.93658 | 1.50883 | 35242 ft | 450 kts | 241° |
| 2026-05-01 10:42 | 48.91042 | 1.42317 | 35241 ft | 450 kts | 241° |
| 2026-05-01 10:43 | 48.88395 | 1.33696 | 35242 ft | 450 kts | 241° |
| 2026-05-01 10:43 | 48.85755 | 1.25150 | 35251 ft | 450 kts | 241° |
| 2026-05-01 10:44 | 48.83091 | 1.16560 | 35244 ft | 449 kts | 241° |
| 2026-05-01 10:44 | 48.80427 | 1.07984 | 35239 ft | 449 kts | 241° |
| 2026-05-01 10:45 | 48.77762 | 0.99415 | 35236 ft | 449 kts | 241° |
| 2026-05-01 10:45 | 48.75080 | 0.90870 | 35230 ft | 449 kts | 241° |
| 2026-05-01 10:46 | 48.71969 | 0.82745 | 35237 ft | 446 kts | 235° |
| 2026-05-01 10:46 | 48.68732 | 0.74741 | 35237 ft | 446 kts | 235° |
| 2026-05-01 10:47 | 48.65498 | 0.66746 | 35230 ft | 445 kts | 235° |
| 2026-05-01 10:47 | 48.62289 | 0.58839 | 35229 ft | 445 kts | 235° |
| 2026-05-01 10:48 | 48.59055 | 0.50925 | 35214 ft | 446 kts | 235° |
| 2026-05-01 10:48 | 48.55790 | 0.42974 | 35226 ft | 446 kts | 236° |
| 2026-05-01 10:49 | 48.52518 | 0.35012 | 35220 ft | 447 kts | 236° |
| 2026-05-01 10:49 | 48.49231 | 0.27023 | 35214 ft | 448 kts | 236° |
| 2026-05-01 10:50 | 48.45937 | 0.19040 | 35214 ft | 448 kts | 236° |
| 2026-05-01 10:50 | 48.42634 | 0.11066 | 35221 ft | 449 kts | 236° |
| 2026-05-01 10:51 | 48.39314 | 0.03091 | 35212 ft | 450 kts | 236° |
| 2026-05-01 10:51 | 48.35978 | -0.04863 | 35218 ft | 450 kts | 236° |
| 2026-05-01 10:52 | 48.32369 | -0.12534 | 35220 ft | 449 kts | 232° |
| 2026-05-01 10:52 | 48.28557 | -0.19958 | 35220 ft | 449 kts | 232° |
| 2026-05-01 10:53 | 48.24750 | -0.27382 | 35220 ft | 449 kts | 232° |
| 2026-05-01 10:53 | 48.20965 | -0.34822 | 35221 ft | 448 kts | 233° |
| 2026-05-01 10:54 | 48.17197 | -0.42191 | 35223 ft | 448 kts | 233° |
| 2026-05-01 10:54 | 48.13402 | -0.49602 | 35223 ft | 448 kts | 233° |
| 2026-05-01 10:55 | 48.09605 | -0.56997 | 35224 ft | 448 kts | 233° |
| 2026-05-01 10:55 | 48.05790 | -0.64389 | 35225 ft | 448 kts | 233° |
| 2026-05-01 10:56 | 48.01976 | -0.71771 | 35226 ft | 448 kts | 232° |
| 2026-05-01 10:56 | 47.98168 | -0.79124 | 35231 ft | 448 kts | 233° |
| 2026-05-01 10:57 | 47.94353 | -0.86462 | 35228 ft | 447 kts | 233° |
| 2026-05-01 10:57 | 47.90549 | -0.93761 | 35234 ft | 446 kts | 233° |
| 2026-05-01 10:58 | 47.86731 | -1.01051 | 35235 ft | 445 kts | 233° |
| 2026-05-01 10:58 | 47.82923 | -1.08312 | 35234 ft | 445 kts | 233° |
| 2026-05-01 10:59 | 47.79117 | -1.15567 | 35225 ft | 444 kts | 233° |
| 2026-05-01 10:59 | 47.75341 | -1.22745 | 35232 ft | 443 kts | 233° |
| 2026-05-01 11:00 | 47.71542 | -1.29944 | 35235 ft | 441 kts | 232° |
| 2026-05-01 11:00 | 47.67753 | -1.37096 | 35241 ft | 440 kts | 232° |
| 2026-05-01 11:01 | 47.63969 | -1.44221 | 35240 ft | 439 kts | 232° |
| 2026-05-01 11:01 | 47.60189 | -1.51330 | 35235 ft | 438 kts | 232° |
| 2026-05-01 11:02 | 47.56245 | -1.58212 | 35226 ft | 438 kts | 229° |
| 2026-05-01 11:02 | 47.52117 | -1.64842 | 35225 ft | 437 kts | 228° |
| 2026-05-01 11:03 | 47.47995 | -1.71448 | 35232 ft | 436 kts | 228° |
| 2026-05-01 11:03 | 47.43929 | -1.78086 | 35234 ft | 435 kts | 228° |
| 2026-05-01 11:04 | 47.39886 | -1.84731 | 35235 ft | 434 kts | 228° |
| 2026-05-01 11:04 | 47.35842 | -1.91270 | 35234 ft | 434 kts | 224° |
| 2026-05-01 11:05 | 47.30940 | -1.96433 | 35232 ft | 434 kts | 212° |
| 2026-05-01 11:05 | 47.25778 | -2.01039 | 35231 ft | 434 kts | 212° |
| 2026-05-01 11:06 | 47.20622 | -2.05646 | 35229 ft | 434 kts | 212° |
| 2026-05-01 11:06 | 47.15471 | -2.10243 | 35236 ft | 432 kts | 212° |
| 2026-05-01 11:07 | 47.07757 | -2.17096 | 35242 ft | 431 kts | 212° |
| 2026-05-01 11:07 | 47.02660 | -2.21605 | 35244 ft | 430 kts | 212° |
| 2026-05-01 11:08 | 46.97531 | -2.26150 | 35244 ft | 430 kts | 212° |
| 2026-05-01 11:09 | 46.89841 | -2.32916 | 35252 ft | 430 kts | 212° |
| 2026-05-01 11:09 | 46.84715 | -2.37415 | 35248 ft | 430 kts | 212° |
| 2026-05-01 11:10 | 46.77038 | -2.44170 | 35258 ft | 429 kts | 212° |
| 2026-05-01 11:10 | 46.71917 | -2.48655 | 35261 ft | 429 kts | 212° |
| 2026-05-01 11:11 | 46.66806 | -2.53122 | 35265 ft | 428 kts | 212° |
| 2026-05-01 11:11 | 46.61729 | -2.57543 | 35262 ft | 428 kts | 211° |
| 2026-05-01 11:12 | 46.56618 | -2.61983 | 35263 ft | 428 kts | 211° |
| 2026-05-01 11:12 | 46.51513 | -2.66416 | 35252 ft | 428 kts | 212° |
| 2026-05-01 11:13 | 46.46397 | -2.70841 | 35253 ft | 428 kts | 212° |
| 2026-05-01 11:13 | 46.41270 | -2.75268 | 35254 ft | 428 kts | 211° |
| 2026-05-01 11:14 | 46.36973 | -2.78962 | 35252 ft | 429 kts | 211° |
| 2026-05-01 11:14 | 46.31848 | -2.83367 | 35255 ft | 429 kts | 212° |
| 2026-05-01 11:15 | 46.26778 | -2.87807 | 35252 ft | 428 kts | 217° |
| 2026-05-01 11:15 | 46.22198 | -2.93296 | 35252 ft | 428 kts | 221° |
| 2026-05-01 11:16 | 46.17661 | -2.98851 | 35253 ft | 428 kts | 221° |
| 2026-05-01 11:16 | 46.13100 | -3.04379 | 35254 ft | 428 kts | 221° |
| 2026-05-01 11:17 | 46.08542 | -3.09909 | 35245 ft | 429 kts | 221° |
| 2026-05-01 11:17 | 46.03978 | -3.15459 | 35246 ft | 429 kts | 221° |
| 2026-05-01 11:18 | 45.99404 | -3.21003 | 35259 ft | 429 kts | 221° |
| 2026-05-01 11:18 | 45.94832 | -3.26532 | 35258 ft | 429 kts | 221° |
| 2026-05-01 11:19 | 45.90263 | -3.32033 | 35249 ft | 429 kts | 221° |
| 2026-05-01 11:19 | 45.85684 | -3.37539 | 35246 ft | 429 kts | 221° |
| 2026-05-01 11:20 | 45.81128 | -3.43006 | 35246 ft | 429 kts | 221° |
| 2026-05-01 11:20 | 45.76537 | -3.48493 | 35244 ft | 430 kts | 221° |
| 2026-05-01 11:21 | 45.71951 | -3.53979 | 35250 ft | 429 kts | 221° |
| 2026-05-01 11:21 | 45.67366 | -3.59433 | 35252 ft | 428 kts | 221° |
| 2026-05-01 11:22 | 45.62787 | -3.64869 | 35254 ft | 427 kts | 221° |
| 2026-05-01 11:22 | 45.58220 | -3.70297 | 35253 ft | 427 kts | 221° |
| 2026-05-01 11:23 | 45.53647 | -3.75711 | 35243 ft | 427 kts | 221° |
| 2026-05-01 11:23 | 45.49077 | -3.81104 | 35239 ft | 426 kts | 221° |
| 2026-05-01 11:24 | 45.44504 | -3.86486 | 35238 ft | 426 kts | 221° |
| 2026-05-01 11:25 | 45.37656 | -3.94531 | 35248 ft | 424 kts | 221° |
| 2026-05-01 11:25 | 45.30868 | -4.02505 | 35234 ft | 423 kts | 221° |
| 2026-05-01 11:26 | 45.24053 | -4.10465 | 35225 ft | 423 kts | 220° |
| 2026-05-01 11:27 | 45.19500 | -4.15755 | 35227 ft | 423 kts | 220° |
| 2026-05-01 11:27 | 45.14942 | -4.21055 | 35224 ft | 423 kts | 220° |
| 2026-05-01 11:28 | 45.10394 | -4.26340 | 35211 ft | 423 kts | 220° |
| 2026-05-01 11:28 | 45.05832 | -4.31629 | 35206 ft | 424 kts | 220° |
| 2026-05-01 11:29 | 44.98973 | -4.39539 | 35207 ft | 424 kts | 220° |
| 2026-05-01 11:30 | 44.92098 | -4.47441 | 35210 ft | 424 kts | 220° |
| 2026-05-01 11:30 | 44.87517 | -4.52701 | 35199 ft | 425 kts | 220° |
| 2026-05-01 11:31 | 44.82957 | -4.57918 | 35209 ft | 425 kts | 220° |
| 2026-05-01 11:31 | 44.78375 | -4.63162 | 35223 ft | 424 kts | 220° |
| 2026-05-01 11:32 | 44.73799 | -4.68378 | 35226 ft | 422 kts | 219° |
| 2026-05-01 11:32 | 44.69232 | -4.73578 | 35225 ft | 422 kts | 220° |
| 2026-05-01 11:33 | 44.64663 | -4.78771 | 35218 ft | 421 kts | 219° |
| 2026-05-01 11:33 | 44.60103 | -4.83932 | 35215 ft | 421 kts | 219° |
| 2026-05-01 11:34 | 44.55537 | -4.89091 | 35214 ft | 421 kts | 219° |
| 2026-05-01 11:34 | 44.51002 | -4.94200 | 35211 ft | 421 kts | 219° |
| 2026-05-01 11:35 | 44.46335 | -4.99140 | 35210 ft | 420 kts | 216° |
| 2026-05-01 11:35 | 44.41561 | -5.03861 | 35212 ft | 420 kts | 216° |
| 2026-05-01 11:36 | 44.36789 | -5.08559 | 35210 ft | 419 kts | 216° |
| 2026-05-01 11:36 | 44.32046 | -5.13283 | 35203 ft | 418 kts | 216° |
| 2026-05-01 11:37 | 44.27400 | -5.17938 | 35190 ft | 418 kts | 216° |
| 2026-05-01 11:37 | 44.22667 | -5.22670 | 35180 ft | 418 kts | 216° |
| 2026-05-01 11:38 | 44.17923 | -5.27393 | 35168 ft | 419 kts | 216° |
| 2026-05-01 11:38 | 44.13167 | -5.32111 | 35170 ft | 420 kts | 216° |
| 2026-05-01 11:39 | 44.08403 | -5.36828 | 35191 ft | 420 kts | 216° |
| 2026-05-01 11:39 | 44.03642 | -5.41546 | 35197 ft | 419 kts | 216° |
| 2026-05-01 11:40 | 43.98888 | -5.46248 | 35195 ft | 419 kts | 215° |
| 2026-05-01 11:40 | 43.94171 | -5.50899 | 35194 ft | 418 kts | 215° |
| 2026-05-01 11:41 | 43.89421 | -5.55558 | 35182 ft | 418 kts | 215° |
| 2026-05-01 11:41 | 43.84671 | -5.60210 | 35163 ft | 418 kts | 215° |
| 2026-05-01 11:42 | 43.79922 | -5.64869 | 35161 ft | 418 kts | 215° |
| 2026-05-01 11:42 | 43.75174 | -5.69522 | 35155 ft | 418 kts | 215° |
| 2026-05-01 11:43 | 43.70463 | -5.74128 | 35173 ft | 418 kts | 215° |
| 2026-05-01 11:43 | 43.65718 | -5.78738 | 35151 ft | 417 kts | 215° |
| 2026-05-01 11:44 | 43.58595 | -5.85646 | 35161 ft | 417 kts | 215° |
| 2026-05-01 11:44 | 43.53857 | -5.90228 | 35160 ft | 416 kts | 215° |
| 2026-05-01 11:45 | 43.49111 | -5.94811 | 35156 ft | 416 kts | 215° |
| 2026-05-01 11:45 | 43.44368 | -5.99403 | 35146 ft | 416 kts | 215° |
| 2026-05-01 11:46 | 43.39619 | -6.03979 | 35142 ft | 417 kts | 215° |
| 2026-05-01 11:46 | 43.34861 | -6.08549 | 35138 ft | 417 kts | 215° |
| 2026-05-01 11:47 | 43.30143 | -6.13066 | 35145 ft | 416 kts | 214° |
| 2026-05-01 11:47 | 43.25393 | -6.17614 | 35135 ft | 416 kts | 215° |
| 2026-05-01 11:48 | 43.20656 | -6.22152 | 35125 ft | 416 kts | 214° |
| 2026-05-01 11:48 | 43.15910 | -6.26690 | 35126 ft | 416 kts | 214° |
| 2026-05-01 11:49 | 43.11155 | -6.31219 | 35120 ft | 416 kts | 214° |
| 2026-05-01 11:49 | 43.06399 | -6.35730 | 35117 ft | 416 kts | 214° |
| 2026-05-01 11:50 | 43.01636 | -6.40237 | 35111 ft | 417 kts | 214° |
| 2026-05-01 11:50 | 42.96871 | -6.44742 | 35112 ft | 417 kts | 214° |
| 2026-05-01 11:51 | 42.92100 | -6.49258 | 35136 ft | 417 kts | 214° |
| 2026-05-01 11:51 | 42.87335 | -6.53755 | 35138 ft | 416 kts | 214° |
| 2026-05-01 11:52 | 42.82576 | -6.58235 | 35124 ft | 416 kts | 215° |
| 2026-05-01 11:52 | 42.77807 | -6.62717 | 35123 ft | 416 kts | 215° |
| 2026-05-01 11:53 | 42.73040 | -6.67191 | 35124 ft | 416 kts | 214° |
| 2026-05-01 11:53 | 42.68265 | -6.71654 | 35124 ft | 416 kts | 214° |
| 2026-05-01 11:54 | 42.63503 | -6.76099 | 35123 ft | 416 kts | 214° |
| 2026-05-01 11:54 | 42.58728 | -6.80551 | 35125 ft | 416 kts | 214° |
| 2026-05-01 11:55 | 42.53952 | -6.84996 | 35144 ft | 416 kts | 215° |
| 2026-05-01 11:55 | 42.49213 | -6.89397 | 35147 ft | 415 kts | 215° |
| 2026-05-01 11:56 | 42.44446 | -6.93818 | 35150 ft | 415 kts | 215° |
| 2026-05-01 11:56 | 42.39671 | -6.98232 | 35143 ft | 415 kts | 215° |
| 2026-05-01 11:57 | 42.35679 | -7.01917 | 35142 ft | 415 kts | 215° |
| 2026-05-01 11:57 | 42.30908 | -7.06317 | 35146 ft | 415 kts | 215° |
| 2026-05-01 11:58 | 42.26700 | -7.11507 | 35142 ft | 414 kts | 232° |
| 2026-05-01 11:58 | 42.23593 | -7.18052 | 34912 ft | 414 kts | 237° |
| 2026-05-01 11:59 | 42.22081 | -7.21349 | 34674 ft | 413 kts | 237° |
| 2026-05-01 11:59 | 42.20564 | -7.24639 | 34454 ft | 411 kts | 237° |
| 2026-05-01 11:59 | 42.19053 | -7.27903 | 34225 ft | 411 kts | 237° |
| 2026-05-01 12:00 | 42.16029 | -7.34434 | 33672 ft | 411 kts | 237° |
| 2026-05-01 12:00 | 42.14511 | -7.37711 | 33406 ft | 412 kts | 237° |
| 2026-05-01 12:00 | 42.11464 | -7.44278 | 32878 ft | 414 kts | 237° |
| 2026-05-01 12:01 | 42.09935 | -7.47567 | 32615 ft | 415 kts | 237° |
| 2026-05-01 12:01 | 42.08400 | -7.50865 | 32358 ft | 416 kts | 237° |
| 2026-05-01 12:01 | 42.06860 | -7.54174 | 32097 ft | 417 kts | 237° |
| 2026-05-01 12:01 | 42.05318 | -7.57485 | 31843 ft | 418 kts | 237° |
| 2026-05-01 12:02 | 42.03767 | -7.60808 | 31616 ft | 419 kts | 237° |
| 2026-05-01 12:02 | 42.02221 | -7.64115 | 31358 ft | 417 kts | 237° |
| 2026-05-01 12:02 | 42.00686 | -7.67398 | 30835 ft | 412 kts | 236° |
| 2026-05-01 12:02 | 41.99169 | -7.70644 | 30270 ft | 407 kts | 236° |
| 2026-05-01 12:03 | 41.97667 | -7.73852 | 29629 ft | 403 kts | 236° |
| 2026-05-01 12:03 | 41.96188 | -7.77007 | 29079 ft | 397 kts | 236° |
| 2026-05-01 12:03 | 41.94724 | -7.80130 | 28523 ft | 392 kts | 236° |
| 2026-05-01 12:03 | 41.93278 | -7.83209 | 27993 ft | 388 kts | 236° |
| 2026-05-01 12:04 | 41.91865 | -7.86211 | 27448 ft | 384 kts | 236° |
| 2026-05-01 12:04 | 41.90449 | -7.89220 | 26923 ft | 380 kts | 236° |
| 2026-05-01 12:04 | 41.89040 | -7.92210 | 26392 ft | 376 kts | 236° |
| 2026-05-01 12:04 | 41.87646 | -7.95166 | 25887 ft | 374 kts | 236° |
| 2026-05-01 12:05 | 41.86237 | -7.98148 | 25368 ft | 380 kts | 236° |
| 2026-05-01 12:05 | 41.83402 | -8.04126 | 24350 ft | 378 kts | 236° |
| 2026-05-01 12:05 | 41.81819 | -8.06910 | 23869 ft | 374 kts | 226° |
| 2026-05-01 12:06 | 41.79880 | -8.09215 | 23292 ft | 372 kts | 216° |
| 2026-05-01 12:06 | 41.77673 | -8.11004 | 22786 ft | 370 kts | 210° |
| 2026-05-01 12:06 | 41.75431 | -8.12672 | 22298 ft | 367 kts | 210° |
| 2026-05-01 12:06 | 41.73213 | -8.14327 | 21826 ft | 365 kts | 210° |
| 2026-05-01 12:07 | 41.70998 | -8.15970 | 21347 ft | 362 kts | 207° |
| 2026-05-01 12:07 | 41.68672 | -8.17236 | 20877 ft | 360 kts | 200° |
| 2026-05-01 12:07 | 41.66280 | -8.18324 | 20392 ft | 358 kts | 200° |
| 2026-05-01 12:07 | 41.63956 | -8.19382 | 19926 ft | 355 kts | 200° |
| 2026-05-01 12:08 | 41.61629 | -8.20447 | 19441 ft | 353 kts | 200° |
| 2026-05-01 12:08 | 41.59339 | -8.21495 | 18956 ft | 351 kts | 200° |
| 2026-05-01 12:08 | 41.57011 | -8.22563 | 18455 ft | 350 kts | 200° |
| 2026-05-01 12:08 | 41.54705 | -8.23620 | 17911 ft | 349 kts | 200° |
| 2026-05-01 12:09 | 41.52414 | -8.24664 | 17411 ft | 346 kts | 200° |
| 2026-05-01 12:09 | 41.50149 | -8.25694 | 16917 ft | 343 kts | 200° |
| 2026-05-01 12:09 | 41.47919 | -8.26710 | 16432 ft | 341 kts | 200° |
| 2026-05-01 12:09 | 41.45680 | -8.27729 | 15944 ft | 339 kts | 200° |
| 2026-05-01 12:10 | 41.43444 | -8.28743 | 15460 ft | 338 kts | 200° |
| 2026-05-01 12:10 | 41.39012 | -8.30750 | 14505 ft | 335 kts | 199° |
| 2026-05-01 12:10 | 41.36814 | -8.31748 | 14023 ft | 334 kts | 199° |
| 2026-05-01 12:11 | 41.32433 | -8.33741 | 13003 ft | 330 kts | 199° |
| 2026-05-01 12:11 | 41.30263 | -8.34729 | 12525 ft | 328 kts | 199° |
| 2026-05-01 12:11 | 41.28112 | -8.35709 | 12026 ft | 326 kts | 199° |
| 2026-05-01 12:12 | 41.25971 | -8.36680 | 11536 ft | 324 kts | 199° |
| 2026-05-01 12:12 | 41.23846 | -8.37639 | 11041 ft | 322 kts | 199° |
| 2026-05-01 12:12 | 41.21734 | -8.38590 | 10635 ft | 318 kts | 199° |
| 2026-05-01 12:12 | 41.19675 | -8.39517 | 10515 ft | 304 kts | 199° |
| 2026-05-01 12:13 | 41.17718 | -8.40397 | 10393 ft | 293 kts | 199° |
| 2026-05-01 12:13 | 41.15818 | -8.41253 | 10252 ft | 283 kts | 199° |
| 2026-05-01 12:13 | 41.13976 | -8.42082 | 10089 ft | 276 kts | 199° |
| 2026-05-01 12:13 | 41.12147 | -8.42906 | 9879 ft | 278 kts | 199° |
| 2026-05-01 12:14 | 41.10320 | -8.43728 | 9479 ft | 276 kts | 199° |
| 2026-05-01 12:14 | 41.08504 | -8.44547 | 9098 ft | 275 kts | 199° |
| 2026-05-01 12:14 | 41.06703 | -8.45358 | 8716 ft | 273 kts | 198° |
| 2026-05-01 12:14 | 41.04906 | -8.46165 | 8332 ft | 271 kts | 198° |
| 2026-05-01 12:15 | 41.03146 | -8.46953 | 7960 ft | 269 kts | 198° |
| 2026-05-01 12:15 | 41.01492 | -8.48073 | 7587 ft | 268 kts | 217° |
| 2026-05-01 12:15 | 41.00299 | -8.49933 | 7186 ft | 264 kts | 241° |
| 2026-05-01 12:15 | 40.99740 | -8.52201 | 6810 ft | 256 kts | 257° |
| 2026-05-01 12:16 | 40.99404 | -8.54512 | 6416 ft | 256 kts | 256° |
| 2026-05-01 12:16 | 40.99062 | -8.56809 | 6020 ft | 254 kts | 256° |
| 2026-05-01 12:16 | 40.98924 | -8.59122 | 5616 ft | 251 kts | 280° |
| 2026-05-01 12:16 | 40.99748 | -8.61077 | 5258 ft | 245 kts | 319° |
| 2026-05-01 12:17 | 41.01267 | -8.61979 | 4912 ft | 241 kts | 348° |
| 2026-05-01 12:17 | 41.02913 | -8.62416 | 4521 ft | 239 kts | 349° |
| 2026-05-01 12:17 | 41.04534 | -8.62840 | 4067 ft | 237 kts | 349° |
| 2026-05-01 12:17 | 41.06120 | -8.63256 | 3680 ft | 231 kts | 349° |
| 2026-05-01 12:18 | 41.07679 | -8.63661 | 3357 ft | 225 kts | 349° |
| 2026-05-01 12:18 | 41.09196 | -8.64052 | 3040 ft | 217 kts | 349° |
| 2026-05-01 12:18 | 41.10650 | -8.64429 | 2759 ft | 209 kts | 348° |
| 2026-05-01 12:18 | 41.12033 | -8.64787 | 2516 ft | 197 kts | 347° |
| 2026-05-01 12:19 | 41.13338 | -8.65126 | 2223 ft | 188 kts | 346° |
| 2026-05-01 12:19 | 41.14572 | -8.65445 | 2004 ft | 171 kts | 347° |
| 2026-05-01 12:19 | 41.15696 | -8.65736 | 1766 ft | 159 kts | 345° |
| 2026-05-01 12:19 | 41.16751 | -8.66010 | 1566 ft | 153 kts | 346° |
| 2026-05-01 12:20 | 41.17777 | -8.66279 | 1362 ft | 148 kts | 346° |
| 2026-05-01 12:20 | 41.18773 | -8.66540 | 1166 ft | 144 kts | 348° |
| 2026-05-01 12:20 | 41.19745 | -8.66797 | 974 ft | 143 kts | 345° |
| 2026-05-01 12:20 | 41.20721 | -8.67065 | 797 ft | 145 kts | 346° |
| 2026-05-01 12:21 | 41.21700 | -8.67322 | 632 ft | 144 kts | 347° |
| 2026-05-01 12:21 | 41.22697 | -8.67569 | 392 ft | 147 kts | 348° |
| 2026-05-01 12:21 | 41.23688 | -8.67833 | 235 ft | 139 kts | 343° |
| 2026-05-01 12:21 | 41.24535 | -8.68056 | 207 ft | 103 kts | 349° |
| 2026-05-01 12:22 | 41.25073 | -8.68191 | 187 ft | 58 kts | 349° |
| 2026-05-01 12:22 | 41.25444 | -8.68293 | 176 ft | 42 kts | 348° |
| 2026-05-01 12:22 | 41.25590 | -8.68266 | 172 ft | 16 kts | 71° |
| 2026-05-01 12:22 | 41.25597 | -8.68121 | 171 ft | 15 kts | 128° |
| 2026-05-01 12:23 | 41.25492 | -8.68075 | 175 ft | 21 kts | 169° |
| 2026-05-01 12:23 | 41.25326 | -8.68031 | 180 ft | 26 kts | 170° |
| 2026-05-01 12:23 | 41.25141 | -8.67983 | 195 ft | 27 kts | 168° |
| 2026-05-01 12:23 | 41.24953 | -8.67934 | 194 ft | 28 kts | 168° |
| 2026-05-01 12:24 | 41.24777 | -8.67837 | 211 ft | 28 kts | 159° |
| 2026-05-01 12:24 | 41.24585 | -8.67783 | 215 ft | 28 kts | 169° |
| 2026-05-01 12:24 | 41.24392 | -8.67733 | 226 ft | 26 kts | 168° |
| 2026-05-01 12:24 | 41.24284 | -8.67672 | 233 ft | 16 kts | 134° |
| 2026-05-01 12:25 | 41.24231 | -8.67577 | 237 ft | 11 kts | 126° |
| 2026-05-01 12:25 | 41.24026 | -8.67493 | 239 ft | 20 kts | 184° |
| 2026-05-01 12:25 | 41.23884 | -8.67491 | 239 ft | 17 kts | 170° |
| 2026-05-01 12:26 | 41.23764 | -8.67461 | 238 ft | 19 kts | 167° |
| 2026-05-01 12:26 | 41.23710 | -8.67349 | 242 ft | 7 kts | 84° |
| 2026-05-01 12:26 | 41.23722 | -8.67303 | 244 ft | 3 kts | 67° |
| 2026-05-01 12:27 | 41.23733 | -8.67267 | 245 ft | 0 kts | 68° |
| 2026-05-01 12:27 | 41.23734 | -8.67264 | 245 ft | 0 kts | 68° |